Time;durP1;ratioP1;P1;durP2;ratioP2;P2;SDS_P1;SDS_P2;PMS_P1;PMS_P2;Temp;Humidity;BMP_temperature;BMP_pressure;BME280_temperature;BME280_humidity;BME280_pressure;Samples;Min_cycle;Max_cycle;Signal;HPM_P1;HPM_P2
2022/09/07 00:00:44;;;;;;;2.20;2.05;;;;;;;8.89;68.39;98572.38;5078316;28;20139;-77
2022/09/07 00:03:09;;;;;;;3.15;2.55;;;;;;;8.88;68.42;98577.84;5078221;28;20040;-78
2022/09/07 00:05:43;;;;;;;2.65;2.20;;;;;;;8.78;68.78;98577.75;5078288;28;20459;-78
2022/09/07 00:08:09;;;;;;;2.38;2.17;;;;;;;8.68;68.37;98563.53;5078433;28;20155;-78
2022/09/07 00:10:35;;;;;;;4.53;2.50;;;;;;;8.61;69.22;98565.84;5094885;28;20047;-75
2022/09/07 00:13:01;;;;;;;2.35;2.15;;;;;;;8.67;69.23;98578.66;5094987;28;20040;-78
2022/09/07 00:15:27;;;;;;;2.50;2.30;;;;;;;8.65;69.29;98585.09;5094576;28;20452;-76
2022/09/07 00:17:53;;;;;;;2.53;2.33;;;;;;;8.59;69.31;98581.13;5077931;28;20088;-74
2022/09/07 00:20:19;;;;;;;2.80;2.50;;;;;;;8.61;69.64;98584.50;5094512;28;20055;-77
2022/09/07 00:22:45;;;;;;;8.85;2.63;;;;;;;8.45;69.95;98586.75;5077533;28;20047;-77
2022/09/07 00:25:11;;;;;;;3.90;2.60;;;;;;;8.42;70.21;98589.69;5095891;28;20055;-77
2022/09/07 00:27:37;;;;;;;2.63;2.42;;;;;;;8.42;69.94;98581.69;5077692;28;20063;-77
2022/09/07 00:30:05;;;;;;;2.13;2.03;;;;;;;8.38;70.11;98583.75;5094186;28;20039;-77
2022/09/07 00:32:31;;;;;;;4.60;2.42;;;;;;;8.24;70.85;98586.72;5095386;28;20051;-78
2022/09/07 00:34:57;;;;;;;2.40;2.20;;;;;;;8.27;70.75;98591.75;5077163;28;20046;-77
2022/09/07 00:37:23;;;;;;;2.75;2.50;;;;;;;8.37;70.84;98589.19;5077258;28;20163;-79
2022/09/07 00:39:49;;;;;;;2.90;2.60;;;;;;;8.25;70.88;98583.06;5076977;28;20048;-78
2022/09/07 00:42:20;;;;;;;2.53;2.33;;;;;;;8.19;70.93;98583.56;5095749;28;20040;-78
2022/09/07 00:45:00;;;;;;;3.60;2.38;;;;;;;8.21;71.32;98598.44;5093791;28;20505;-78
2022/09/07 00:47:38;;;;;;;2.53;2.25;;;;;;;8.25;71.12;98596.38;5060819;28;20465;-82
2022/09/07 00:50:14;;;;;;;2.70;2.50;;;;;;;8.06;71.43;98566.94;5060231;28;20044;-78
2022/09/07 00:52:43;;;;;;;2.47;2.28;;;;;;;8.26;71.08;98590.09;5077399;28;20048;-77
2022/09/07 00:55:12;;;;;;;2.65;2.45;;;;;;;8.36;71.03;98593.69;5093717;28;20036;-78
2022/09/07 00:57:42;;;;;;;4.38;2.10;;;;;;;8.42;70.86;98587.84;5094893;28;20071;-78
2022/09/07 01:00:08;;;;;;;2.10;2.00;;;;;;;8.46;70.91;98597.31;5093486;28;20044;-80
2022/09/07 01:02:37;;;;;;;2.30;2.10;;;;;;;8.44;70.82;98598.41;5093374;28;20104;-80
2022/09/07 01:05:14;;;;;;;2.63;2.10;;;;;;;8.48;70.53;98594.50;5076753;28;20040;-80
2022/09/07 01:07:40;;;;;;;2.38;2.10;;;;;;;8.46;70.69;98594.66;5077310;28;20395;-79
2022/09/07 01:10:07;;;;;;;2.22;2.13;;;;;;;8.54;70.56;98603.78;5093414;28;20040;-80
2022/09/07 01:12:33;;;;;;;4.38;2.85;;;;;;;8.58;70.51;98605.25;5094788;28;20555;-79
2022/09/07 01:14:59;;;;;;;2.78;2.40;;;;;;;8.65;70.54;98601.94;5094702;28;20048;-77
2022/09/07 01:17:46;;;;;;;3.25;2.15;;;;;;;8.78;70.31;98604.41;5076441;28;20042;-76
2022/09/07 01:20:27;;;;;;;2.05;1.77;;;;;;;8.62;70.34;98606.69;5093201;28;20040;-75
2022/09/07 01:23:18;;;;;;;2.22;2.03;;;;;;;8.55;70.19;98609.00;5059799;28;20055;-77
2022/09/07 01:26:08;;;;;;;2.45;2.25;;;;;;;8.41;71.05;98615.47;5094742;28;20040;-76
2022/09/07 01:28:35;;;;;;;2.72;2.20;;;;;;;8.38;70.99;98613.06;5094245;28;20138;-76
2022/09/07 01:31:19;;;;;;;2.13;1.98;;;;;;;8.26;71.45;98614.03;5094174;28;20047;-76
2022/09/07 01:33:51;;;;;;;1.90;1.80;;;;;;;8.27;71.24;98618.38;5076589;28;20064;-76
2022/09/07 01:36:21;;;;;;;4.15;2.58;;;;;;;8.36;71.50;98633.63;5059831;28;20044;-76
2022/09/07 01:38:57;;;;;;;4.53;2.40;;;;;;;8.31;71.58;98618.97;5092657;28;20044;-77
2022/09/07 01:42:00;;;;;;;2.60;2.40;;;;;;;8.37;71.36;98616.69;5092672;28;20127;-76
2022/09/07 01:44:36;;;;;;;2.58;2.38;;;;;;;8.47;71.20;98624.78;5092965;28;20036;-76
2022/09/07 01:47:12;;;;;;;3.42;2.42;;;;;;;8.47;71.19;98628.28;5076175;28;20078;-76
2022/09/07 01:49:43;;;;;;;2.65;2.42;;;;;;;8.41;71.57;98634.13;5092967;28;20072;-76
2022/09/07 01:52:19;;;;;;;2.33;2.13;;;;;;;8.38;71.36;98626.38;5093911;28;20058;-77
2022/09/07 01:54:56;;;;;;;3.05;2.33;;;;;;;8.38;71.33;98628.19;5093197;28;20036;-76
2022/09/07 01:57:41;;;;;;;2.38;2.20;;;;;;;8.50;71.29;98640.53;5091455;28;20040;-75
2022/09/07 02:00:11;;;;;;;3.88;2.15;;;;;;;8.39;71.21;98627.25;5075503;28;20486;-76
2022/09/07 02:03:06;;;;;;;5.93;2.63;;;;;;;8.42;71.12;98650.94;5075352;28;20127;-76
2022/09/07 02:06:09;;;;;;;2.60;2.00;;;;;;;8.38;70.88;98642.34;5055964;28;20096;-76
2022/09/07 02:08:45;;;;;;;2.63;2.42;;;;;;;8.38;71.12;98642.34;5088759;28;20051;-76
2022/09/07 02:11:23;;;;;;;2.30;2.10;;;;;;;8.49;70.84;98647.63;5059015;28;20484;-76
2022/09/07 02:13:55;;;;;;;2.20;2.00;;;;;;;8.55;70.73;98648.13;5092300;28;20040;-76
2022/09/07 02:16:29;;;;;;;2.10;2.00;;;;;;;8.41;70.63;98652.75;5075734;28;20036;-76
2022/09/07 02:19:02;;;;;;;2.40;2.20;;;;;;;8.26;71.12;98648.66;5075117;28;20134;-76
2022/09/07 02:21:40;;;;;;;2.70;2.25;;;;;;;8.29;70.83;98661.72;5091816;28;20040;-76
2022/09/07 02:24:22;;;;;;;5.72;2.40;;;;;;;8.10;71.07;98646.41;5092078;28;20097;-75
2022/09/07 02:26:51;;;;;;;2.38;2.00;;;;;;;8.35;70.90;98669.22;5092062;28;20040;-75
2022/09/07 02:29:17;;;;;;;3.42;2.45;;;;;;;8.40;70.57;98676.88;5091865;28;20082;-75
2022/09/07 02:31:43;;;;;;;2.58;2.38;;;;;;;8.37;70.64;98669.97;5058163;28;20074;-76
2022/09/07 02:34:09;;;;;;;2.75;2.28;;;;;;;8.42;70.57;98681.06;5091515;28;20578;-76
2022/09/07 02:36:40;;;;;;;4.53;2.35;;;;;;;8.42;70.60;98678.41;5074705;28;20177;-78
2022/09/07 02:39:06;;;;;;;2.95;2.70;;;;;;;8.50;70.42;98683.97;5091639;28;20082;-78
2022/09/07 02:41:39;;;;;;;3.53;2.70;;;;;;;8.51;70.60;98688.31;5074984;28;20043;-79
2022/09/07 02:44:18;;;;;;;4.78;2.75;;;;;;;8.51;70.43;98680.34;5074883;28;20051;-79
2022/09/07 02:47:05;;;;;;;3.97;2.75;;;;;;;8.60;70.26;98694.72;5058014;28;20046;-78
2022/09/07 02:50:13;;;;;;;2.75;2.55;;;;;;;8.63;70.37;98698.94;5057930;28;20048;-78
2022/09/07 02:52:45;;;;;;;3.75;2.70;;;;;;;8.75;70.11;98703.25;5081420;28;20047;-78
2022/09/07 02:55:20;;;;;;;4.40;2.50;;;;;;;8.83;70.25;98710.63;5092607;28;20063;-77
2022/09/07 02:58:09;;;;;;;2.35;2.15;;;;;;;8.61;69.79;98712.38;5057863;28;20097;-76
2022/09/07 03:00:45;;;;;;;4.50;2.67;;;;;;;8.61;70.22;98706.19;5092752;28;20062;-78
2022/09/07 03:03:22;;;;;;;4.93;2.58;;;;;;;8.81;70.02;98697.44;5091306;28;20497;-80
2022/09/07 03:05:54;;;;;;;2.92;2.60;;;;;;;8.94;69.70;98703.41;5091253;28;20036;-78
2022/09/07 03:08:27;;;;;;;2.45;2.25;;;;;;;9.09;69.02;98713.78;5095074;28;20181;-78
2022/09/07 03:10:53;;;;;;;2.70;2.50;;;;;;;8.92;68.68;98708.03;5078995;28;20048;-77
2022/09/07 03:13:24;;;;;;;2.38;2.17;;;;;;;8.98;68.68;98710.19;5095683;28;20056;-80
2022/09/07 03:15:50;;;;;;;2.40;2.20;;;;;;;8.85;68.38;98687.38;5095843;28;20104;-79
2022/09/07 03:18:16;;;;;;;3.35;2.50;;;;;;;8.90;68.28;98709.13;5096579;28;20040;-82
2022/09/07 03:20:43;;;;;;;2.50;2.22;;;;;;;8.92;68.45;98694.72;5063707;28;20088;-82
2022/09/07 03:23:10;;;;;;;5.57;2.50;;;;;;;8.98;68.68;98707.50;5096576;28;20495;-77
2022/09/07 03:25:36;;;;;;;2.85;2.55;;;;;;;9.15;68.58;98715.94;5095495;28;20531;-78
2022/09/07 03:28:02;;;;;;;8.40;2.60;;;;;;;9.26;68.56;98723.88;5068679;28;20051;-81
2022/09/07 03:30:28;;;;;;;2.33;2.17;;;;;;;9.29;68.25;98707.63;5061270;28;20050;-80
2022/09/07 03:32:54;;;;;;;7.60;2.75;;;;;;;9.36;68.13;98714.09;5078390;28;20036;-78
2022/09/07 03:35:20;;;;;;;4.13;2.50;;;;;;;9.46;68.23;98720.34;5095484;28;20370;-78
2022/09/07 03:37:46;;;;;;;2.40;2.20;;;;;;;9.48;67.68;98707.75;5078078;28;20116;-82
2022/09/07 03:40:14;;;;;;;4.47;2.78;;;;;;;9.62;67.33;98724.38;5094984;28;20144;-79
2022/09/07 03:42:40;;;;;;;4.80;2.78;;;;;;;9.65;67.02;98729.44;5095002;28;20044;-78
2022/09/07 03:45:07;;;;;;;4.05;2.38;;;;;;;9.63;66.59;98731.41;5095068;28;20047;-78
2022/09/07 03:47:34;;;;;;;3.80;2.47;;;;;;;9.63;66.51;98737.59;5078162;28;20552;-78
2022/09/07 03:50:00;;;;;;;5.45;2.60;;;;;;;9.67;66.61;98740.84;5061528;28;20044;-77
2022/09/07 03:52:26;;;;;;;4.38;2.63;;;;;;;9.58;66.27;98738.97;5077755;28;20040;-78
2022/09/07 03:54:51;;;;;;;5.45;2.58;;;;;;;9.53;66.44;98754.53;5095155;28;20043;-79
2022/09/07 03:57:19;;;;;;;3.22;2.72;;;;;;;9.56;66.43;98751.59;5077831;28;20060;-77
2022/09/07 03:59:45;;;;;;;8.65;2.70;;;;;;;9.65;66.46;98756.97;5094270;28;20594;-81
2022/09/07 04:02:13;;;;;;;3.03;2.70;;;;;;;9.75;66.42;98746.38;5061397;28;20075;-82
2022/09/07 04:04:40;;;;;;;2.65;2.45;;;;;;;9.71;66.09;98731.59;5096073;28;20048;-79
2022/09/07 04:07:06;;;;;;;5.97;3.45;;;;;;;9.72;65.77;98741.28;5094570;28;20089;-80
2022/09/07 04:09:32;;;;;;;5.28;3.30;;;;;;;9.85;65.89;98752.59;5077767;28;20043;-79
2022/09/07 04:11:58;;;;;;;5.15;2.72;;;;;;;9.92;66.01;98759.09;5094376;28;20043;-79
2022/09/07 04:14:24;;;;;;;4.90;2.70;;;;;;;9.93;65.73;98760.81;5060898;28;20065;-80
2022/09/07 04:16:50;;;;;;;4.88;2.40;;;;;;;9.86;65.64;98756.97;5094371;28;20040;-80
2022/09/07 04:19:16;;;;;;;3.08;2.78;;;;;;;9.80;65.87;98753.97;5076399;28;20122;-79
2022/09/07 04:21:46;;;;;;;2.75;2.55;;;;;;;9.83;66.21;98759.91;5094112;28;20040;-80
2022/09/07 04:24:16;;;;;;;4.72;2.58;;;;;;;10.10;66.34;98774.50;5060847;28;20040;-78
2022/09/07 04:26:44;;;;;;;6.30;3.10;;;;;;;10.09;66.08;98775.47;5078098;28;20093;-79
2022/09/07 04:29:11;;;;;;;4.90;3.05;;;;;;;10.07;65.60;98772.94;5094076;28;20075;-78
2022/09/07 04:31:38;;;;;;;9.10;3.60;;;;;;;10.05;65.09;98768.72;5060550;28;20044;-79
2022/09/07 04:34:05;;;;;;;5.40;3.42;;;;;;;10.35;65.49;98782.09;5093973;28;20044;-79
2022/09/07 04:36:32;;;;;;;4.30;2.80;;;;;;;10.53;65.43;98757.38;5077097;28;20048;-77
2022/09/07 04:39:00;;;;;;;9.82;5.28;;;;;;;10.85;65.26;98774.06;5094799;28;20200;-78
2022/09/07 04:41:27;;;;;;;6.22;2.60;;;;;;;10.99;64.60;98769.31;5077392;28;20183;-86
2022/09/07 04:43:56;;;;;;;2.80;2.60;;;;;;;11.08;64.20;98763.94;5060630;28;20040;-79
2022/09/07 04:46:35;;;;;;;6.45;2.60;;;;;;;11.34;63.92;98769.56;5077081;28;20477;-79
2022/09/07 04:49:04;;;;;;;3.97;2.38;;;;;;;11.30;62.49;98784.22;5093910;28;20043;-80
2022/09/07 04:51:31;;;;;;;5.57;2.47;;;;;;;11.34;62.52;98785.63;5076825;28;20051;-83
2022/09/07 04:53:59;;;;;;;2.42;2.20;;;;;;;11.38;62.28;98784.34;5076368;28;20101;-79
2022/09/07 04:56:25;;;;;;;5.03;2.50;;;;;;;11.48;62.72;98786.19;5094411;28;20050;-77
2022/09/07 04:58:51;;;;;;;4.70;2.78;;;;;;;11.66;62.85;98796.03;5076693;28;20048;-77
2022/09/07 05:01:20;;;;;;;3.17;2.33;;;;;;;11.76;61.62;98806.72;5059924;28;20039;-78
2022/09/07 05:03:46;;;;;;;2.65;2.40;;;;;;;11.75;60.88;98804.19;5060059;28;20055;-78
2022/09/07 05:06:15;;;;;;;3.17;2.35;;;;;;;11.80;60.99;98802.75;5094715;28;20048;-78
2022/09/07 05:08:44;;;;;;;2.38;2.20;;;;;;;11.92;60.87;98800.78;5093780;28;20127;-78
2022/09/07 05:11:12;;;;;;;3.92;2.25;;;;;;;12.03;59.82;98807.81;5059813;28;20066;-78
2022/09/07 05:13:38;;;;;;;2.00;1.90;;;;;;;12.16;59.22;98808.38;5076501;28;20097;-83
2022/09/07 05:16:33;;;;;;;2.40;1.90;;;;;;;12.08;56.72;98821.66;5076352;28;20040;-80
2022/09/07 05:19:02;;;;;;;4.10;1.83;;;;;;;11.99;56.95;98822.50;5089214;28;20048;-80
2022/09/07 05:21:30;;;;;;;1.70;1.60;;;;;;;12.05;57.46;98816.56;5093069;28;20047;-79
2022/09/07 05:23:58;;;;;;;2.50;1.20;;;;;;;12.24;56.62;98813.84;5059623;28;20093;-80
2022/09/07 05:26:26;;;;;;;2.47;1.50;;;;;;;12.12;55.58;98809.66;5076176;28;20093;-79
2022/09/07 05:28:52;;;;;;;1.57;1.33;;;;;;;12.23;55.73;98819.34;5059478;28;20131;-81
2022/09/07 05:31:21;;;;;;;1.38;0.90;;;;;;;12.47;55.91;98805.44;5075795;28;20286;-79
2022/09/07 05:33:49;;;;;;;2.78;1.20;;;;;;;12.60;54.98;98822.03;5075910;28;20089;-80
2022/09/07 05:36:15;;;;;;;1.67;1.40;;;;;;;12.76;54.64;98816.84;5059415;28;20044;-81
2022/09/07 05:38:41;;;;;;;2.25;1.52;;;;;;;12.58;54.69;98818.63;5075883;28;20325;-80
2022/09/07 05:41:19;;;;;;;2.30;1.60;;;;;;;12.44;55.57;98822.63;5059299;28;20043;-81
2022/09/07 05:43:46;;;;;;;3.67;1.65;;;;;;;12.50;56.40;98810.50;5075932;28;20040;-78
2022/09/07 05:46:14;;;;;;;3.17;1.60;;;;;;;12.51;56.16;98829.09;5075889;28;20039;-78
2022/09/07 05:48:41;;;;;;;2.67;1.30;;;;;;;12.55;55.30;98816.25;5059448;28;20048;-80
2022/09/07 05:51:07;;;;;;;1.73;1.20;;;;;;;12.45;54.55;98828.84;5058951;28;20143;-80
2022/09/07 05:53:34;;;;;;;1.23;1.23;;;;;;;12.50;54.88;98824.75;5059015;28;20075;-80
2022/09/07 05:56:01;;;;;;;2.10;1.30;;;;;;;12.62;55.15;98830.75;5075609;28;20040;-81
2022/09/07 05:58:27;;;;;;;3.72;1.60;;;;;;;12.75;55.32;98831.25;5075547;28;20415;-80
2022/09/07 06:01:05;;;;;;;3.65;2.20;;;;;;;12.81;54.84;98829.81;5075752;28;20040;-79
2022/09/07 06:03:33;;;;;;;1.48;1.00;;;;;;;12.85;53.70;98847.28;5059050;28;20082;-80
2022/09/07 06:06:06;;;;;;;1.92;1.40;;;;;;;12.57;53.10;98838.41;5075118;28;20097;-79
2022/09/07 06:08:34;;;;;;;1.20;1.05;;;;;;;12.68;53.54;98838.22;5092528;28;20048;-78
2022/09/07 06:11:08;;;;;;;1.98;1.15;;;;;;;12.93;53.99;98828.59;5075206;28;20521;-78
2022/09/07 06:13:34;;;;;;;1.65;1.15;;;;;;;13.32;53.70;98837.28;5075300;28;20072;-79
2022/09/07 06:16:04;;;;;;;2.10;1.15;;;;;;;13.34;52.33;98840.66;5075337;28;20046;-79
2022/09/07 06:18:33;;;;;;;4.03;1.33;;;;;;;13.41;52.04;98848.94;5075264;28;20036;-79
2022/09/07 06:21:11;;;;;;;5.53;1.23;;;;;;;13.78;50.49;98837.19;5075079;28;20036;-78
2022/09/07 06:23:39;;;;;;;1.00;1.00;;;;;;;13.85;49.40;98838.25;5075704;28;20452;-78
2022/09/07 06:26:05;;;;;;;2.97;1.17;;;;;;;14.21;49.37;98836.31;5091701;28;20549;-80
2022/09/07 06:28:37;;;;;;;3.13;1.30;;;;;;;14.64;49.13;98826.53;5091933;28;20054;-79
2022/09/07 06:31:06;;;;;;;0.90;0.90;;;;;;;14.56;47.11;98835.38;5063738;28;20055;-79
2022/09/07 06:33:33;;;;;;;2.58;1.30;;;;;;;14.50;47.39;98833.34;5038296;28;20131;-79
2022/09/07 06:36:02;;;;;;;1.88;0.80;;;;;;;14.04;47.44;98864.94;5082252;28;20562;-79
2022/09/07 06:38:30;;;;;;;2.33;0.90;;;;;;;13.78;48.00;98840.72;5074947;28;20040;-79
2022/09/07 06:41:11;;;;;;;4.45;1.15;;;;;;;13.68;48.61;98849.84;5058198;28;20056;-79
2022/09/07 06:43:37;;;;;;;2.35;1.10;;;;;;;13.56;49.25;98847.41;5091032;28;20100;-79
2022/09/07 06:46:04;;;;;;;4.32;1.00;;;;;;;13.45;49.32;98849.47;5091629;28;20047;-78
2022/09/07 06:48:31;;;;;;;2.97;1.30;;;;;;;13.55;49.30;98861.00;5074704;28;20558;-80
2022/09/07 06:50:58;;;;;;;1.67;1.10;;;;;;;13.81;48.54;98848.47;5058184;28;20047;-79
2022/09/07 06:53:25;;;;;;;1.15;0.80;;;;;;;13.93;47.42;98859.81;5071140;28;20055;-77
2022/09/07 06:55:52;;;;;;;2.28;1.10;;;;;;;13.90;46.80;98865.50;5071141;28;20036;-76
2022/09/07 06:58:18;;;;;;;3.72;0.80;;;;;;;13.72;45.97;98884.31;5054504;28;20504;-76
2022/09/07 07:00:44;;;;;;;2.03;0.90;;;;;;;13.67;45.08;98865.13;5054323;28;20075;-78
2022/09/07 07:03:10;;;;;;;5.78;0.90;;;;;;;13.91;46.16;98866.34;5070785;28;20072;-77
2022/09/07 07:05:35;;;;;;;1.55;0.63;;;;;;;14.23;45.47;98844.25;5071445;28;20052;-77
2022/09/07 07:08:01;;;;;;;3.13;0.68;;;;;;;14.31;43.71;98861.25;5072724;28;20474;-77
2022/09/07 07:10:27;;;;;;;3.70;0.85;;;;;;;14.43;42.08;98874.44;5071130;28;20131;-77
2022/09/07 07:12:56;;;;;;;1.83;0.77;;;;;;;14.08;42.89;98858.25;5055033;28;20036;-78
2022/09/07 07:15:25;;;;;;;0.60;0.60;;;;;;;14.23;43.44;98861.22;5071751;28;20136;-77
2022/09/07 07:17:51;;;;;;;;;;;;;;;14.30;43.16;98873.03;5054823;28;20048;-78
2022/09/07 07:20:17;;;;;;;1.17;0.65;;;;;;;14.17;43.67;98871.75;5071531;28;20385;-77
2022/09/07 07:22:43;;;;;;;3.67;0.98;;;;;;;13.97;44.19;98871.94;5054557;28;20151;-78
2022/09/07 07:25:09;;;;;;;4.85;0.75;;;;;;;14.25;43.77;98875.31;5071275;28;20045;-80
2022/09/07 07:27:36;;;;;;;2.28;0.70;;;;;;;14.59;42.17;98888.00;5071195;28;20044;-79
2022/09/07 07:30:02;;;;;;;0.68;0.68;;;;;;;15.16;41.88;98863.22;5091504;28;20468;-79
2022/09/07 07:32:29;;;;;;;2.30;0.52;;;;;;;15.37;40.30;98877.06;5091770;28;20044;-78
2022/09/07 07:34:55;;;;;;;0.50;0.38;;;;;;;15.23;38.74;98854.31;5072475;28;20105;-78
2022/09/07 07:37:21;;;;;;;0.60;0.60;;;;;;;15.19;39.49;98869.09;5037599;28;20139;-80
2022/09/07 07:39:49;;;;;;;0.77;0.77;;;;;;;15.00;40.57;98872.06;5070640;28;20106;-78
2022/09/07 07:42:15;;;;;;;1.42;0.70;;;;;;;15.03;41.01;98879.81;5072595;28;20063;-80
2022/09/07 07:44:41;;;;;;;2.30;0.88;;;;;;;14.95;40.54;98886.00;5071016;28;20045;-78
2022/09/07 07:47:07;;;;;;;2.17;0.80;;;;;;;15.00;41.67;98885.50;5054339;28;20040;-82
2022/09/07 07:49:33;;;;;;;3.40;0.82;;;;;;;14.88;42.79;98881.44;5070977;28;20040;-80
2022/09/07 07:51:59;;;;;;;2.97;1.08;;;;;;;14.80;43.33;98883.06;5037602;28;20066;-79
2022/09/07 07:54:25;;;;;;;1.05;1.02;;;;;;;14.85;42.91;98884.44;5056167;28;20076;-77
2022/09/07 07:56:51;;;;;;;13.75;1.27;;;;;;;15.09;41.43;98889.94;5041367;28;20499;-78
2022/09/07 07:59:17;;;;;;;2.45;0.68;;;;;;;15.07;39.85;98905.41;5057771;28;20052;-79
2022/09/07 08:01:42;;;;;;;1.25;0.93;;;;;;;15.08;40.41;98888.22;5041152;28;20059;-81
2022/09/07 08:04:11;;;;;;;2.58;0.93;;;;;;;15.22;40.59;98909.16;5052857;28;20046;-79
2022/09/07 08:06:41;;;;;;;2.70;1.00;;;;;;;15.35;41.58;98891.72;5094783;28;20515;-79
2022/09/07 08:09:07;;;;;;;1.95;1.25;;;;;;;15.53;41.93;98887.88;5061133;28;20043;-79
2022/09/07 08:11:34;;;;;;;0.73;0.73;;;;;;;15.46;41.25;98896.78;5094576;28;20090;-80
2022/09/07 08:14:05;;;;;;;2.90;1.10;;;;;;;15.43;41.17;98897.13;5060891;28;20040;-79
2022/09/07 08:16:34;;;;;;;0.80;0.73;;;;;;;14.95;40.46;98915.63;5061380;28;20093;-86
2022/09/07 08:19:00;;;;;;;1.40;1.30;;;;;;;14.58;41.73;98897.09;5076742;28;20048;-78
2022/09/07 08:21:36;;;;;;;2.17;1.10;;;;;;;14.33;42.19;98907.66;5059983;28;20043;-93
2022/09/07 08:24:03;;;;;;;1.13;1.00;;;;;;;14.37;43.08;98910.00;5043299;28;20040;-80
2022/09/07 08:26:29;;;;;;;1.13;1.02;;;;;;;14.49;43.26;98927.59;5043163;28;20044;-79
2022/09/07 08:28:57;;;;;;;6.40;0.90;;;;;;;14.67;42.45;98901.53;5061141;28;20520;-89
2022/09/07 08:31:23;;;;;;;1.27;0.93;;;;;;;14.62;43.20;98909.22;5045911;28;20134;-80
2022/09/07 08:33:49;;;;;;;0.50;0.50;;;;;;;14.98;41.84;98907.22;5086561;28;20198;-83
2022/09/07 08:36:17;;;;;;;0.60;0.60;;;;;;;15.21;41.11;98920.94;5056770;28;20052;-80
2022/09/07 08:38:44;;;;;;;0.63;0.63;;;;;;;15.21;41.27;98931.72;5076587;28;20139;-87
2022/09/07 08:41:49;;;;;;;1.00;0.80;;;;;;;15.00;41.33;98939.34;5056531;28;20044;-79
2022/09/07 08:44:17;;;;;;;2.75;1.17;;;;;;;15.10;42.39;98899.69;5034233;28;20056;-78
2022/09/07 08:46:46;;;;;;;0.95;0.93;;;;;;;15.28;42.29;98892.34;5040487;28;20044;-80
2022/09/07 08:49:40;;;;;;;6.40;0.95;;;;;;;15.26;42.10;98913.19;5056072;28;20049;-80
2022/09/07 08:52:21;;;;;;;0.60;0.60;;;;;;;14.98;42.04;98925.22;5057518;28;20415;-78
2022/09/07 08:54:59;;;;;;;1.88;0.70;;;;;;;14.67;42.40;98925.72;5073350;28;20044;-80
2022/09/07 08:57:29;;;;;;;3.50;0.70;;;;;;;14.61;42.58;98918.28;5073635;28;20059;-87
2022/09/07 09:00:02;;;;;;;0.93;0.70;;;;;;;14.64;42.90;98923.34;5056797;28;20059;-79
2022/09/07 09:02:30;;;;;;;3.53;0.93;;;;;;;15.32;41.81;98927.88;5040953;28;20404;-77
2022/09/07 09:04:56;;;;;;;0.80;0.80;;;;;;;16.06;41.36;98920.81;5039544;28;20126;-79
2022/09/07 09:07:45;;;;;;;4.80;0.80;;;;;;;15.99;40.70;98930.59;5056471;28;20553;-79
2022/09/07 09:10:43;;;;;;;3.42;1.25;;;;;;;16.45;40.26;98925.50;5057528;28;20036;-79
2022/09/07 09:13:18;;;;;;;4.15;0.77;;;;;;;16.45;37.66;98941.69;5041945;28;20044;-81
2022/09/07 09:16:08;;;;;;;1.08;0.50;;;;;;;16.27;37.07;98948.09;5057192;28;20496;-83
2022/09/07 09:19:00;;;;;;;0.47;0.47;;;;;;;16.64;36.95;98941.31;5073541;28;20135;-83
2022/09/07 09:21:27;;;;;;;0.60;0.60;;;;;;;16.31;36.72;98924.34;5040127;28;20426;-79
2022/09/07 09:23:59;;;;;;;0.75;0.50;;;;;;;16.27;36.50;98953.50;5075477;28;20059;-80
2022/09/07 09:26:29;;;;;;;1.38;0.70;;;;;;;16.31;37.82;98924.34;5040652;28;20040;-85
2022/09/07 09:28:56;;;;;;;0.80;0.80;;;;;;;16.21;37.12;98919.13;5073342;28;20101;-79
2022/09/07 09:31:31;;;;;;;2.92;0.80;;;;;;;16.41;37.38;98943.06;5074198;28;20056;-78
2022/09/07 09:34:10;;;;;;;1.90;0.63;;;;;;;16.43;37.70;98932.91;5072678;28;20454;-80
2022/09/07 09:36:45;;;;;;;0.70;0.70;;;;;;;16.40;37.82;98922.50;5039273;28;20143;-79
2022/09/07 09:39:35;;;;;;;1.15;0.60;;;;;;;16.39;36.99;98955.84;5072209;28;20049;-76
2022/09/07 09:42:10;;;;;;;1.02;0.77;;;;;;;16.37;36.30;98939.00;5072850;28;20062;-80
2022/09/07 09:44:37;;;;;;;0.45;0.45;;;;;;;16.31;37.13;98916.25;5055659;28;20047;-80
2022/09/07 09:47:05;;;;;;;1.75;0.70;;;;;;;16.74;36.02;98944.72;5039829;28;20102;-86
2022/09/07 09:49:38;;;;;;;1.30;0.70;;;;;;;17.08;35.51;98938.22;5073335;28;20079;-79
2022/09/07 09:52:16;;;;;;;1.77;0.85;;;;;;;17.15;35.00;98938.34;5072660;28;20491;-78
2022/09/07 09:54:47;;;;;;;1.27;1.10;;;;;;;17.32;34.89;98934.56;5073565;28;20049;-81
2022/09/07 09:57:15;;;;;;;1.25;0.80;;;;;;;17.53;34.85;98943.94;5055851;28;20075;-78
2022/09/07 09:59:41;;;;;;;1.63;0.80;;;;;;;18.01;35.22;98969.84;5054928;28;20448;-78
2022/09/07 10:02:28;;;;;;;2.08;0.80;;;;;;;18.50;34.87;98953.22;5055419;28;20105;-78
2022/09/07 10:04:54;;;;;;;1.00;0.80;;;;;;;18.92;34.38;98927.47;5072799;28;20063;-83
2022/09/07 10:07:29;;;;;;;1.08;0.85;;;;;;;19.73;33.94;98952.72;5072073;28;20538;-78
2022/09/07 10:09:55;;;;;;;1.63;0.90;;;;;;;19.47;32.63;98944.22;5055189;28;20091;-78
2022/09/07 10:12:35;;;;;;;1.45;0.85;;;;;;;19.59;32.56;98940.00;5072857;28;20045;-82
2022/09/07 10:15:05;;;;;;;4.50;0.98;;;;;;;19.35;33.14;98950.13;5073369;28;20055;-85
2022/09/07 10:17:32;;;;;;;;;;;;;;;19.08;33.29;98954.38;5038467;28;20040;-81
2022/09/07 10:20:19;;;;;;;1.77;0.80;;;;;;;18.67;33.49;98960.19;5071737;28;20402;-80
2022/09/07 10:22:51;;;;;;;0.82;0.60;;;;;;;18.01;34.51;98956.31;5054259;28;20520;-80
2022/09/07 10:25:38;;;;;;;0.75;0.70;;;;;;;17.53;34.91;98936.66;5071501;28;20036;-80
2022/09/07 10:28:08;;;;;;;3.30;0.90;;;;;;;17.56;35.25;98957.91;5054947;28;20068;-80
2022/09/07 10:31:20;;;;;;;2.60;1.00;;;;;;;17.09;36.63;98972.31;5038088;28;20094;-80
2022/09/07 10:34:11;;;;;;;0.80;0.80;;;;;;;17.10;36.99;98952.38;5033196;28;20495;-79
2022/09/07 10:37:02;;;;;;;2.58;0.90;;;;;;;17.30;36.52;98941.16;5054662;28;20044;-82
2022/09/07 10:40:04;;;;;;;1.10;0.90;;;;;;;17.45;35.87;98952.91;5071400;28;20083;-82
2022/09/07 10:42:51;;;;;;;1.00;0.90;;;;;;;17.56;36.50;98947.09;5054867;28;20071;-81
2022/09/07 10:45:22;;;;;;;2.40;0.90;;;;;;;18.04;35.32;98955.97;5071399;28;20507;-85
2022/09/07 10:47:57;;;;;;;2.75;0.70;;;;;;;18.38;34.09;98974.47;5054940;28;20044;-82
2022/09/07 10:50:42;;;;;;;3.03;0.90;;;;;;;17.62;34.63;98978.84;5073280;28;20068;-81
2022/09/07 10:53:18;;;;;;;2.00;0.70;;;;;;;17.13;35.81;98973.63;5054540;28;20068;-81
2022/09/07 10:56:10;;;;;;;5.03;0.80;;;;;;;16.70;37.01;98983.00;5055283;28;20509;-80
2022/09/07 10:58:59;;;;;;;0.60;0.60;;;;;;;16.54;37.69;98961.41;5051723;28;20052;-81
2022/09/07 11:01:25;;;;;;;;;;;;;;;16.79;37.69;98970.34;5056825;28;20049;-82
2022/09/07 11:04:22;;;;;;;4.03;0.95;;;;;;;17.03;38.18;98972.16;5058955;28;19920;-81
2022/09/07 11:06:51;;;;;;;9.85;1.17;;;;;;;17.37;36.92;98977.25;5055517;28;20044;-82
2022/09/07 11:09:45;;;;;;;1.58;0.80;;;;;;;16.71;38.00;98982.81;5073239;28;20044;-80
2022/09/07 11:12:18;;;;;;;1.13;0.90;;;;;;;17.03;37.24;98978.38;5071268;28;20156;-89
2022/09/07 11:15:03;;;;;;;0.60;0.60;;;;;;;16.94;37.21;98974.03;5054783;28;20054;-85
2022/09/07 11:17:40;;;;;;;0.77;0.52;;;;;;;16.67;37.78;98973.38;5055470;28;20060;-84
2022/09/07 11:20:23;;;;;;;2.10;0.80;;;;;;;16.35;38.49;98984.19;5038078;28;20051;-81
2022/09/07 11:23:01;;;;;;;6.53;0.70;;;;;;;16.43;38.61;98982.31;5038381;28;20040;-82
2022/09/07 11:25:34;;;;;;;1.25;0.70;;;;;;;16.29;39.01;98990.25;5054457;28;20040;-82
2022/09/07 11:28:16;;;;;;;7.18;0.75;;;;;;;16.89;38.55;98998.00;5037750;28;20036;-81
2022/09/07 11:30:52;;;;;;;5.85;0.80;;;;;;;18.65;36.04;98994.72;5074033;28;20567;-83
2022/09/07 11:33:24;;;;;;;0.50;0.50;;;;;;;18.96;34.36;98976.69;5074717;28;20049;-82
2022/09/07 11:36:02;;;;;;;2.50;0.60;;;;;;;18.52;34.51;98991.78;5076637;28;20041;-83
2022/09/07 11:38:41;;;;;;;3.72;1.23;;;;;;;19.08;34.49;98988.75;5058432;28;20496;-81
2022/09/07 11:41:25;;;;;;;6.03;0.68;;;;;;;18.79;34.17;99009.34;5041853;28;20123;-82
2022/09/07 11:44:17;;;;;;;0.45;0.45;;;;;;;17.62;34.10;99005.88;5041113;28;20064;-82
2022/09/07 11:46:47;;;;;;;2.42;0.70;;;;;;;17.12;34.69;99003.53;5056005;28;20060;-79
2022/09/07 11:49:22;;;;;;;4.07;0.50;;;;;;;16.64;35.61;99018.75;5052773;28;20060;-81
2022/09/07 11:52:00;;;;;;;0.70;0.65;;;;;;;17.59;35.11;99008.91;5076466;28;20139;-82
2022/09/07 11:54:47;;;;;;;1.15;0.93;;;;;;;17.81;34.07;99004.63;5092106;28;20143;-82
2022/09/07 11:57:13;;;;;;;1.02;0.95;;;;;;;17.06;35.31;98999.66;5093085;28;20036;-82
2022/09/07 12:00:11;;;;;;;4.47;2.22;;;;;;;16.31;37.12;99010.66;5094564;28;20367;-81